createdAt,value
2018-06-10T00:00:48.141Z,98716.14
2018-06-10T00:03:51.326Z,98713.85
2018-06-10T00:06:54.483Z,98719.05
2018-06-10T00:09:57.487Z,98713.09
2018-06-10T00:13:00.846Z,98716.39
2018-06-10T00:16:03.838Z,98720.80
2018-06-10T00:19:06.986Z,98722.89
2018-06-10T00:22:10.129Z,98725.98
2018-06-10T00:25:13.238Z,98727.02
2018-06-10T00:28:20.845Z,98729.59
2018-06-10T00:31:23.864Z,98727.16
2018-06-10T00:34:27.203Z,98729.81
2018-06-10T00:37:32.338Z,98725.91
2018-06-10T00:40:36.515Z,98724.08
2018-06-10T00:43:39.585Z,98724.52
2018-06-10T00:46:42.590Z,98730.41
2018-06-10T00:49:45.542Z,98724.43
2018-06-10T00:52:48.578Z,98726.64
2018-06-10T00:55:51.610Z,98718.92
2018-06-10T00:58:54.679Z,98723.19
2018-06-10T01:01:57.765Z,98712.90
2018-06-10T01:05:01.043Z,98712.38
2018-06-10T01:08:04.328Z,98718.04
2018-06-10T01:11:07.452Z,98716.12
2018-06-10T01:14:10.749Z,98715.62
2018-06-10T01:17:13.871Z,98716.94
2018-06-10T01:20:16.966Z,98713.93
2018-06-10T01:23:20.022Z,98704.09
2018-06-10T01:26:28.696Z,98694.47
2018-06-10T01:29:31.881Z,98698.88
2018-06-10T01:32:35.091Z,98692.85
2018-06-10T01:35:39.205Z,98684.84
2018-06-10T01:38:43.259Z,98684.98
2018-06-10T01:41:47.395Z,98682.48
2018-06-10T01:44:51.687Z,98688.94
2018-06-10T01:47:56.710Z,98683.08
2018-06-10T01:51:00.850Z,98679.62
2018-06-10T01:54:03.981Z,98677.63
2018-06-10T01:57:08.085Z,98676.30
2018-06-10T02:00:11.106Z,98673.38
2018-06-10T02:03:14.238Z,98673.96
2018-06-10T02:06:20.726Z,98683.06
2018-06-10T02:09:23.872Z,98677.33
2018-06-10T02:12:27.910Z,98673.36
2018-06-10T02:15:35.266Z,98672.19
2018-06-10T02:18:39.508Z,98673.07
2018-06-10T02:21:42.644Z,98672.04
2018-06-10T02:24:45.625Z,98671.17
2018-06-10T02:27:49.596Z,98670.44
2018-06-10T02:30:53.641Z,98668.82
2018-06-10T02:33:56.807Z,98667.21
2018-06-10T02:36:59.939Z,98664.34
2018-06-10T02:40:08.487Z,98661.18
2018-06-10T02:43:11.681Z,98656.77
2018-06-10T02:46:14.750Z,98655.86
2018-06-10T02:49:18.856Z,98654.97
2018-06-10T02:52:27.208Z,98653.13
2018-06-10T02:55:30.279Z,98649.09
2018-06-10T02:58:33.269Z,98647.99
2018-06-10T03:01:36.435Z,98643.73
2018-06-10T03:04:39.504Z,98643.95
2018-06-10T03:07:42.650Z,98642.05
2018-06-10T03:10:45.773Z,98636.47
2018-06-10T03:13:48.918Z,98640.14
2018-06-10T03:16:52.400Z,98638.40
2018-06-10T03:19:57.539Z,98640.02
2018-06-10T03:23:02.250Z,98639.14
2018-06-10T03:26:05.446Z,98638.69
2018-06-10T03:29:08.435Z,98649.86
2018-06-10T03:32:11.644Z,98645.61
2018-06-10T03:35:14.782Z,98643.55
2018-06-10T03:38:17.839Z,98639.42
2018-06-10T03:41:20.925Z,98640.81
2018-06-10T03:44:24.653Z,98647.44
2018-06-10T03:47:27.817Z,98648.31
2018-06-10T03:50:31.021Z,98647.70
2018-06-10T03:53:35.201Z,98642.83
2018-06-10T03:56:38.322Z,98649.83
2018-06-10T03:59:41.570Z,98640.12
2018-06-10T04:02:44.699Z,98636.86
2018-06-10T04:05:53.506Z,98643.77
2018-06-10T04:08:56.589Z,98651.25
2018-06-10T04:11:59.865Z,98654.32
2018-06-10T04:15:03.858Z,98650.00
2018-06-10T04:18:07.057Z,98645.50
2018-06-10T04:21:10.095Z,98640.52
2018-06-10T04:24:13.424Z,98641.57
2018-06-10T04:27:17.445Z,98643.13
2018-06-10T04:30:21.102Z,98648.81
2018-06-10T04:33:24.208Z,98646.27
2018-06-10T04:36:27.219Z,98644.55
2018-06-10T04:39:30.268Z,98645.48
2018-06-10T04:42:33.297Z,98646.17
2018-06-10T04:45:36.489Z,98651.46
2018-06-10T04:48:39.457Z,98650.55
2018-06-10T04:51:42.804Z,98654.69
2018-06-10T04:54:45.873Z,98662.88
2018-06-10T04:57:50.820Z,98665.42
2018-06-10T05:00:53.862Z,98660.00
2018-06-10T05:04:09.309Z,98661.50
2018-06-10T05:07:12.392Z,98666.70
2018-06-10T05:10:15.501Z,98654.65
2018-06-10T05:13:18.778Z,98655.66
2018-06-10T05:16:21.753Z,98660.65
2018-06-10T05:19:25.797Z,98661.38
2018-06-10T05:22:29.991Z,98665.32
2018-06-10T05:25:32.971Z,98670.11
2018-06-10T05:28:36.002Z,98678.89
2018-06-10T05:31:39.083Z,98686.52
2018-06-10T05:34:46.296Z,98690.82
2018-06-10T05:37:51.353Z,98697.52
2018-06-10T05:40:55.411Z,98699.30
2018-06-10T05:44:00.547Z,98701.92
2018-06-10T05:47:05.667Z,98714.52
2018-06-10T05:50:09.664Z,98711.05
2018-06-10T05:53:16.924Z,98706.73
2018-06-10T05:56:23.390Z,98717.26
2018-06-10T05:59:26.427Z,98715.89
2018-06-10T06:02:29.614Z,98718.66
2018-06-10T06:05:32.600Z,98721.03
2018-06-10T06:08:41.649Z,98723.83
2018-06-10T06:11:49.758Z,98730.56
2018-06-10T06:14:52.849Z,98722.98
2018-06-10T06:17:57.919Z,98718.66
2018-06-10T06:38:30.537Z,98716.92
2018-06-10T06:41:33.624Z,98716.30
2018-06-10T06:44:36.618Z,98725.86
2018-06-10T06:47:39.855Z,98720.31
2018-06-10T06:50:44.926Z,98738.16
2018-06-10T06:53:51.154Z,98736.67
2018-06-10T06:56:58.236Z,98732.06
2018-06-10T07:00:02.305Z,98733.19
2018-06-10T07:03:05.358Z,98733.77
2018-06-10T07:06:08.438Z,98738.19
2018-06-10T07:09:11.523Z,98738.23
2018-06-10T07:12:14.643Z,98738.48
2018-06-10T07:15:17.639Z,98736.06
2018-06-10T07:18:20.669Z,98733.08
2018-06-10T07:21:23.750Z,98724.09
2018-06-10T07:24:27.721Z,98718.46
2018-06-10T07:27:31.925Z,98720.95
2018-06-10T07:30:40.661Z,98718.30
2018-06-10T07:33:44.813Z,98714.87
2018-06-10T07:36:47.880Z,98722.70
2018-06-10T07:39:51.069Z,98722.02
2018-06-10T07:42:55.168Z,98718.55
2018-06-10T07:45:59.133Z,98717.90
2018-06-10T07:49:02.162Z,98717.19
2018-06-10T07:52:06.170Z,98716.73
2018-06-10T07:55:09.098Z,98718.20
2018-06-10T07:58:15.431Z,98711.89
2018-06-10T08:01:18.586Z,98708.61
2018-06-10T08:04:21.765Z,98713.13
2018-06-10T08:07:24.986Z,98706.92
2018-06-10T08:10:32.750Z,98700.09
2018-06-10T08:13:35.955Z,98697.02
2018-06-10T08:16:38.950Z,98697.02
2018-06-10T08:19:45.654Z,98699.73
2018-06-10T08:22:48.665Z,98693.85
2018-06-10T08:25:52.803Z,98686.95
2018-06-10T08:28:57.007Z,98689.09
2018-06-10T08:32:00.518Z,98688.00
2018-06-10T08:35:03.657Z,98692.11
2018-06-10T08:38:06.966Z,98685.65
2018-06-10T08:41:10.061Z,98682.47
2018-06-10T08:44:13.218Z,98683.50
2018-06-10T08:47:16.277Z,98686.41
2018-06-10T08:50:19.468Z,98683.77
2018-06-10T08:53:22.511Z,98681.59
2018-06-10T08:56:25.539Z,98674.73
2018-06-10T08:59:28.673Z,98673.30
2018-06-10T09:02:31.749Z,98674.73
2018-06-10T09:05:34.897Z,98675.17
2018-06-10T09:08:38.136Z,98683.59
2018-06-10T09:11:41.106Z,98681.45
2018-06-10T09:14:44.146Z,98687.97
2018-06-10T09:17:49.306Z,98677.16
2018-06-10T09:20:53.373Z,98674.67
2018-06-10T09:23:56.446Z,98676.52
2018-06-10T09:26:59.616Z,98675.49
2018-06-10T09:30:02.999Z,98678.06
2018-06-10T09:33:06.098Z,98672.45
2018-06-10T09:36:09.376Z,98667.04
2018-06-10T09:39:13.258Z,98671.44
2018-06-10T09:42:27.262Z,98665.81
2018-06-10T09:45:30.516Z,98672.44
2018-06-10T09:48:33.641Z,98669.79
2018-06-10T09:51:40.676Z,98675.33
2018-06-10T09:54:43.758Z,98678.04
2018-06-10T09:57:46.883Z,98678.55
2018-06-10T10:00:50.069Z,98672.02
2018-06-10T10:03:56.233Z,98668.98
2018-06-10T10:06:59.457Z,98672.51
2018-06-10T10:10:02.872Z,98668.83
2018-06-10T10:13:05.988Z,98662.59
2018-06-10T10:16:09.023Z,98667.49
2018-06-10T10:19:12.223Z,98659.39
2018-06-10T10:22:15.442Z,98652.53
2018-06-10T10:25:18.546Z,98653.97
2018-06-10T10:28:21.561Z,98654.86
2018-06-10T10:31:24.626Z,98658.23
2018-06-10T10:34:29.855Z,98656.17
2018-06-10T10:37:46.130Z,98659.70
2018-06-10T10:40:49.213Z,98649.48
2018-06-10T10:43:52.267Z,98648.41
2018-06-10T10:46:59.165Z,98650.20
2018-06-10T10:50:03.220Z,98648.34
2018-06-10T10:53:09.714Z,98652.08
2018-06-10T10:56:18.282Z,98643.16
2018-06-10T10:59:22.349Z,98647.24
2018-06-10T11:02:25.462Z,98637.53
2018-06-10T11:05:28.430Z,98635.22
2018-06-10T11:08:33.691Z,98629.14
2018-06-10T11:11:41.617Z,98627.89
2018-06-10T11:14:48.023Z,98627.02
2018-06-10T11:17:51.127Z,98622.86
2018-06-10T11:20:54.216Z,98624.17
2018-06-10T11:24:12.146Z,98617.27
2018-06-10T11:27:15.396Z,98611.77
2018-06-10T11:30:18.620Z,98619.58
2018-06-10T11:33:21.733Z,98614.98
2018-06-10T11:36:24.889Z,98610.17
2018-06-10T11:39:27.892Z,98611.36
2018-06-10T11:42:32.221Z,98601.59
2018-06-10T11:45:35.229Z,98606.98
2018-06-10T11:48:39.315Z,98606.72
2018-06-10T11:51:42.537Z,98599.49
2018-06-10T11:54:45.714Z,98602.11
2018-06-10T11:57:48.844Z,98596.02
2018-06-10T12:00:53.014Z,98602.97
2018-06-10T12:03:59.917Z,98606.14
2018-06-10T12:07:23.622Z,98609.80
2018-06-10T12:10:32.026Z,98612.98
2018-06-10T12:13:35.015Z,98609.75
2018-06-10T12:16:39.263Z,98594.72
2018-06-10T12:19:48.237Z,98593.44
2018-06-10T12:22:51.504Z,98586.22
2018-06-10T12:25:54.619Z,98594.18
2018-06-10T12:28:57.746Z,98588.09
2018-06-10T12:32:00.838Z,98582.80
2018-06-10T12:35:04.028Z,98581.48
2018-06-10T12:38:07.333Z,98588.73
2018-06-10T12:41:11.573Z,98581.20
2018-06-10T12:44:14.698Z,98578.63
2018-06-10T12:47:21.313Z,98573.21
2018-06-10T12:50:25.331Z,98580.89
2018-06-10T12:53:28.535Z,98578.20
2018-06-10T12:56:32.612Z,98573.97
2018-06-10T12:59:36.665Z,98570.88
2018-06-10T13:02:41.463Z,98570.09
2018-06-10T13:05:47.850Z,98563.83
2018-06-10T13:08:52.934Z,98568.25
2018-06-10T13:11:56.994Z,98569.84
2018-06-10T13:15:00.096Z,98567.59
2018-06-10T13:18:21.012Z,98569.77
2018-06-10T13:21:28.107Z,98569.17
2018-06-10T13:24:33.314Z,98570.88
2018-06-10T13:27:36.424Z,98570.91
2018-06-10T13:30:39.497Z,98565.34
2018-06-10T13:33:42.747Z,98568.03
2018-06-10T13:36:45.762Z,98567.15
2018-06-10T13:39:50.927Z,98566.13
2018-06-10T13:43:08.268Z,98567.22
2018-06-10T13:46:11.527Z,98572.17
2018-06-10T13:49:22.130Z,98568.38
2018-06-10T13:52:32.683Z,98566.13
2018-06-10T13:55:35.798Z,98564.34
2018-06-10T13:58:43.622Z,98565.48
2018-06-10T14:01:48.795Z,98566.70
2018-06-10T14:04:51.871Z,98560.97
2018-06-10T14:08:00.152Z,98564.53
2018-06-10T14:11:07.886Z,98556.91
2018-06-10T14:14:10.916Z,98554.98
2018-06-10T14:17:14.955Z,98557.26
2018-06-10T14:20:21.394Z,98558.94
2018-06-10T14:23:24.486Z,98554.06
2018-06-10T14:26:28.684Z,98554.98
2018-06-10T14:29:34.044Z,98549.56
2018-06-10T14:32:43.190Z,98552.64
2018-06-10T14:35:46.234Z,98534.38
2018-06-10T14:38:52.574Z,98536.77
2018-06-10T14:41:55.622Z,98535.66
2018-06-10T14:44:59.560Z,98533.08
2018-06-10T14:48:04.640Z,98528.26
2018-06-10T14:51:11.031Z,98534.47
2018-06-10T14:54:14.237Z,98529.44
2018-06-10T14:57:36.746Z,98536.09
2018-06-10T15:00:40.168Z,98533.38
2018-06-10T15:03:44.422Z,98534.30
2018-06-10T15:06:54.916Z,98532.61
2018-06-10T15:09:57.998Z,98534.02
2018-06-10T15:13:06.027Z,98524.11
2018-06-10T15:16:09.042Z,98525.38
2018-06-10T15:19:17.183Z,98515.72
2018-06-10T15:22:20.189Z,98515.05
2018-06-10T15:25:23.158Z,98519.38
2018-06-10T15:28:26.207Z,98515.59
2018-06-10T15:31:32.661Z,98515.30
2018-06-10T15:34:35.928Z,98507.12
2018-06-10T15:37:40.031Z,98514.39
2018-06-10T15:40:43.022Z,98515.83
2018-06-10T15:43:46.112Z,98516.48
2018-06-10T15:46:49.044Z,98521.38
2018-06-10T15:49:53.047Z,98513.59
2018-06-10T15:52:58.145Z,98512.52
2018-06-10T15:56:02.402Z,98512.67
2018-06-10T15:59:05.780Z,98516.38
2018-06-10T16:02:09.965Z,98523.80
2018-06-10T16:05:14.018Z,98515.86
2018-06-10T16:08:17.100Z,98515.95
2018-06-10T16:11:20.141Z,98522.16
2018-06-10T16:14:23.324Z,98522.72
2018-06-10T16:17:27.586Z,98521.57
2018-06-10T16:20:40.935Z,98532.08
2018-06-10T16:23:45.037Z,98529.05
2018-06-10T16:26:49.097Z,98535.70
2018-06-10T16:29:52.339Z,98527.23
2018-06-10T16:33:02.774Z,98527.59
2018-06-10T16:36:06.368Z,98519.09
2018-06-10T16:39:09.891Z,98525.77
2018-06-10T16:42:13.205Z,98534.84
2018-06-10T16:45:18.271Z,98530.59
2018-06-10T16:48:29.420Z,98540.06
2018-06-10T16:51:32.446Z,98546.53
2018-06-10T16:54:35.480Z,98546.92
2018-06-10T16:57:38.673Z,98548.81
2018-06-10T17:00:41.823Z,98547.52
2018-06-10T17:03:47.024Z,98552.67
2018-06-10T17:07:01.523Z,98558.34
2018-06-10T17:10:05.626Z,98558.09
2018-06-10T17:13:09.069Z,98561.06
2018-06-10T17:16:13.245Z,98559.72
2018-06-10T17:19:16.299Z,98562.16
2018-06-10T17:22:19.490Z,98560.00
2018-06-10T17:25:22.821Z,98563.48
2018-06-10T17:28:25.796Z,98566.42
2018-06-10T17:31:28.969Z,98559.47
2018-06-10T17:34:32.041Z,98554.66
2018-06-10T17:37:35.096Z,98554.66
2018-06-10T17:40:41.203Z,98547.70
2018-06-10T17:43:48.220Z,98543.44
2018-06-10T17:46:51.255Z,98535.16
2018-06-10T17:49:54.391Z,98524.73
2018-06-10T17:52:59.352Z,98510.30
2018-06-10T17:56:07.311Z,98510.30
2018-06-10T17:59:33.867Z,98511.88
2018-06-10T18:02:36.950Z,98510.80
2018-06-10T18:05:41.142Z,98513.69
2018-06-10T18:08:48.889Z,98523.89
2018-06-10T18:11:51.918Z,98549.31
2018-06-10T18:14:54.924Z,98554.94
2018-06-10T18:18:01.686Z,98567.16
2018-06-10T18:21:09.604Z,98569.55
2018-06-10T18:24:12.720Z,98572.25
2018-06-10T18:27:16.197Z,98583.73
2018-06-10T18:30:27.137Z,98587.79
2018-06-10T18:33:35.131Z,98596.61
2018-06-10T18:36:38.573Z,98589.08
2018-06-10T18:39:42.687Z,98590.38
2018-06-10T18:42:46.807Z,98602.82
2018-06-10T18:45:50.035Z,98601.29
2018-06-10T18:48:53.156Z,98606.50
2018-06-10T18:51:56.294Z,98609.83
2018-06-10T18:54:59.303Z,98612.91
2018-06-10T18:58:02.405Z,98617.16
2018-06-10T19:01:05.574Z,98614.44
2018-06-10T19:04:08.771Z,98609.61
2018-06-10T19:07:11.816Z,98602.36
2018-06-10T19:10:14.817Z,98608.92
2018-06-10T19:13:18.909Z,98615.46
2018-06-10T19:16:21.892Z,98605.77
2018-06-10T19:19:24.993Z,98610.23
2018-06-10T19:22:32.540Z,98614.34
2018-06-10T19:25:35.664Z,98619.53
2018-06-10T19:28:38.682Z,98617.25
2018-06-10T19:31:42.799Z,98622.02
2018-06-10T19:34:45.980Z,98618.00
2018-06-10T19:37:49.010Z,98624.06
2018-06-10T19:40:53.132Z,98620.48
2018-06-10T19:43:56.244Z,98623.32
2018-06-10T19:46:59.335Z,98628.36
2018-06-10T19:50:02.444Z,98629.13
2018-06-10T19:53:05.953Z,98625.14
2018-06-10T19:56:09.066Z,98626.19
2018-06-10T19:59:12.222Z,98627.42
2018-06-10T20:02:21.037Z,98630.75
2018-06-10T20:05:24.160Z,98623.79
2018-06-10T20:08:27.218Z,98624.59
2018-06-10T20:11:30.410Z,98632.61
2018-06-10T20:14:38.493Z,98636.59
2018-06-10T20:17:45.363Z,98629.67
2018-06-10T20:20:49.845Z,98622.50
2018-06-10T20:23:54.014Z,98625.92
2018-06-10T20:26:59.034Z,98637.33
2018-06-10T20:30:02.434Z,98635.97
2018-06-10T20:33:06.517Z,98626.00
2018-06-10T20:36:10.059Z,98619.31
2018-06-10T20:39:14.345Z,98629.70
2018-06-10T20:42:17.531Z,98646.45
2018-06-10T20:45:20.841Z,98658.80
2018-06-10T20:48:24.163Z,98652.75
2018-06-10T20:51:28.390Z,98644.53
2018-06-10T20:54:31.575Z,98655.45
2018-06-10T20:57:39.157Z,98659.68
2018-06-10T21:00:44.549Z,98658.77
2018-06-10T21:03:51.710Z,98666.95
2018-06-10T21:06:55.477Z,98663.73
2018-06-10T21:09:59.485Z,98683.11
2018-06-10T21:13:33.836Z,98683.11
2018-06-10T21:16:37.042Z,98686.39
2018-06-10T21:19:40.360Z,98678.45
2018-06-10T21:22:43.534Z,98683.57
2018-06-10T21:25:49.022Z,98676.92
2018-06-10T21:29:02.809Z,98693.75
2018-06-10T21:32:08.033Z,98694.39
2018-06-10T21:35:11.655Z,98693.45
2018-06-10T21:38:17.432Z,98690.79
2018-06-10T21:49:37.897Z,98684.44
2018-06-10T21:52:50.210Z,98694.22
2018-06-10T21:55:53.957Z,98690.60
2018-06-10T21:59:01.186Z,98698.05
2018-06-10T22:13:59.119Z,98693.33
2018-06-10T22:17:02.346Z,98704.83
2018-06-10T22:20:05.610Z,98701.41
2018-06-10T22:23:08.924Z,98704.63
2018-06-10T22:26:12.120Z,98703.59
2018-06-10T22:29:15.722Z,98700.14
2018-06-10T22:32:18.865Z,98693.17
2018-06-10T22:35:23.278Z,98690.23
2018-06-10T22:38:26.431Z,98687.50
2018-06-10T22:41:29.581Z,98689.52
2018-06-10T22:44:32.904Z,98695.71
2018-06-10T22:47:36.144Z,98691.60
2018-06-10T22:50:39.342Z,98691.84
2018-06-10T22:54:03.753Z,98699.33
2018-06-10T22:57:07.075Z,98695.63
2018-06-10T23:00:10.227Z,98696.76
2018-06-10T23:03:14.508Z,98695.06
2018-06-10T23:06:18.321Z,98695.34
2018-06-10T23:09:21.688Z,98695.23
2018-06-10T23:12:24.973Z,98693.33
2018-06-10T23:15:28.248Z,98703.55
2018-06-10T23:18:32.572Z,98708.81
2018-06-10T23:21:35.821Z,98711.95
2018-06-10T23:24:39.104Z,98708.96
2018-06-10T23:27:42.341Z,98707.59
2018-06-10T23:30:45.705Z,98707.11
2018-06-10T23:33:48.937Z,98707.39
2018-06-10T23:36:52.222Z,98709.48
2018-06-10T23:39:56.526Z,98711.05
2018-06-10T23:42:59.801Z,98709.20
2018-06-10T23:46:05.774Z,98709.16
2018-06-10T23:49:09.106Z,98706.13
2018-06-10T23:52:12.183Z,98702.66
2018-06-10T23:55:15.332Z,98703.04
2018-06-10T23:58:18.477Z,98695.81
